Time;durP1;ratioP1;P1;durP2;ratioP2;P2;SDS_P1;SDS_P2;PMS_P1;PMS_P2;Temp;Humidity;BMP_temperature;BMP_pressure;BME280_temperature;BME280_humidity;BME280_pressure;Samples;Min_cycle;Max_cycle;Signal;HPM_P1;HPM_P2
2022/12/10 00:00:32;;;;;;;57.25;20.50;;;;;;;;;;5101659;27;45170;-78
2022/12/10 00:02:58;;;;;;;61.15;20.83;;;;;;;;;;5103990;28;20758;-79
2022/12/10 00:05:25;;;;;;;58.28;21.42;;;;;;;;;;5097196;28;20044;-78
2022/12/10 00:07:51;;;;;;;56.38;21.80;;;;;;;;;;5106766;27;20546;-78
2022/12/10 00:10:18;;;;;;;59.78;22.85;;;;;;;;;;5111571;27;20588;-78
2022/12/10 00:12:44;;;;;;;61.53;21.15;;;;;;;;;;5107449;28;20040;-78
2022/12/10 00:15:10;;;;;;;68.95;21.77;;;;;;;;;;5088980;28;20048;-78
2022/12/10 00:17:37;;;;;;;65.35;23.15;;;;;;;;;;5095913;27;20060;-78
2022/12/10 00:20:03;;;;;;;64.10;22.13;;;;;;;;;;5101009;28;20055;-78
2022/12/10 00:22:29;;;;;;;57.53;20.90;;;;;;;;;;5109996;28;20051;-78
2022/12/10 00:24:56;;;;;;;63.08;21.67;;;;;;;;;;5109298;28;20052;-78
2022/12/10 00:27:22;;;;;;;58.35;22.35;;;;;;;;;;5084990;27;20883;-78
2022/12/10 00:29:49;;;;;;;66.28;22.98;;;;;;;;;;5108540;28;20058;-78
2022/12/10 00:32:15;;;;;;;66.18;23.30;;;;;;;;;;5109409;28;20052;-78
2022/12/10 00:34:42;;;;;;;62.13;22.98;;;;;;;;;;5121045;27;20055;-78
2022/12/10 00:37:08;;;;;;;59.08;22.42;;;;;;;;;;5088413;27;20055;-78
2022/12/10 00:39:34;;;;;;;64.53;23.00;;;;;;;;;;5105077;27;20066;-78
2022/12/10 00:42:02;;;;;;;66.85;21.83;;;;;;;;;;5108850;28;20056;-78
2022/12/10 00:44:28;;;;;;;64.78;22.30;;;;;;;;;;5105157;27;20696;-78
2022/12/10 00:46:54;;;;;;;72.50;23.65;;;;;;;;;;5109530;28;20051;-78
2022/12/10 00:49:22;;;;;;;62.90;24.10;;;;;;;;;;5108428;27;20572;-78
2022/12/10 00:51:52;;;;;;;75.90;24.17;;;;;;;;;;5098747;27;20112;-78
2022/12/10 00:54:19;;;;;;;61.42;22.30;;;;;;;;;;5102381;28;20063;-78
2022/12/10 00:56:45;;;;;;;69.95;24.73;;;;;;;;;;5090211;28;20526;-78
2022/12/10 00:59:12;;;;;;;66.78;24.08;;;;;;;;;;5109863;27;20083;-78
2022/12/10 01:01:39;;;;;;;77.75;26.27;;;;;;;;;;5110030;28;20062;-78
2022/12/10 01:04:11;;;;;;;67.35;23.27;;;;;;;;;;5092677;28;20057;-78
2022/12/10 01:06:47;;;;;;;79.63;24.80;;;;;;;;;;5091765;28;20063;-78
2022/12/10 01:09:16;;;;;;;72.93;25.27;;;;;;;;;;5109436;27;20149;-78
2022/12/10 01:11:43;;;;;;;81.05;25.88;;;;;;;;;;5093412;28;20352;-78
2022/12/10 01:14:11;;;;;;;71.00;25.15;;;;;;;;;;5093211;28;20072;-78
2022/12/10 01:16:37;;;;;;;87.55;27.52;;;;;;;;;;5096526;28;20071;-78
2022/12/10 01:19:05;;;;;;;75.57;26.00;;;;;;;;;;5123627;27;20050;-78
2022/12/10 01:21:31;;;;;;;77.95;25.40;;;;;;;;;;5083704;28;20057;-78
2022/12/10 01:23:58;;;;;;;80.20;26.20;;;;;;;;;;5094898;28;20048;-78
2022/12/10 01:26:25;;;;;;;72.57;25.10;;;;;;;;;;5101847;28;20147;-78
2022/12/10 01:28:52;;;;;;;77.30;25.77;;;;;;;;;;5093326;27;20546;-78
2022/12/10 01:31:20;;;;;;;78.80;25.50;;;;;;;;;;5092129;28;20052;-78
2022/12/10 01:33:47;;;;;;;78.18;25.73;;;;;;;;;;5092708;28;20569;-78
2022/12/10 01:36:15;;;;;;;81.75;25.85;;;;;;;;;;5092278;28;20139;-78
2022/12/10 01:38:42;;;;;;;83.57;25.23;;;;;;;;;;5096732;27;20052;-78
2022/12/10 01:41:13;;;;;;;83.32;26.63;;;;;;;;;;5111772;27;20056;-78
2022/12/10 01:43:49;;;;;;;81.10;26.08;;;;;;;;;;5093553;28;20048;-78
2022/12/10 01:46:15;;;;;;;72.40;25.63;;;;;;;;;;5112697;28;20036;-79
2022/12/10 01:48:42;;;;;;;80.85;24.75;;;;;;;;;;5121981;27;20063;-78
2022/12/10 01:51:09;;;;;;;72.95;24.75;;;;;;;;;;5106620;27;20056;-78
2022/12/10 01:53:35;;;;;;;72.53;23.73;;;;;;;;;;5092685;28;20056;-78
2022/12/10 01:56:02;;;;;;;81.32;25.48;;;;;;;;;;5075973;28;20099;-78
2022/12/10 01:58:28;;;;;;;80.65;24.55;;;;;;;;;;5114996;27;20385;-78
2022/12/10 02:01:05;;;;;;;80.53;24.55;;;;;;;;;;5133292;27;20086;-78
2022/12/10 02:03:50;;;;;;;81.00;25.30;;;;;;;;;;5112672;27;20858;-78
2022/12/10 02:06:33;;;;;;;82.72;24.60;;;;;;;;;;5111662;28;20104;-78
2022/12/10 02:09:20;;;;;;;81.45;24.85;;;;;;;;;;5094177;28;20141;-78
2022/12/10 02:11:50;;;;;;;84.13;25.60;;;;;;;;;;5107802;28;20040;-79
2022/12/10 02:14:25;;;;;;;95.78;26.48;;;;;;;;;;5117655;27;20059;-78
2022/12/10 02:16:59;;;;;;;80.65;26.50;;;;;;;;;;5091527;28;20886;-78
2022/12/10 02:19:35;;;;;;;83.82;25.70;;;;;;;;;;5094141;27;20049;-78
2022/12/10 02:22:02;;;;;;;93.13;27.40;;;;;;;;;;5091678;27;20055;-78
2022/12/10 02:24:30;;;;;;;89.25;26.83;;;;;;;;;;5115394;27;20057;-78
2022/12/10 02:27:02;;;;;;;85.63;26.17;;;;;;;;;;5089468;28;20048;-78
2022/12/10 02:29:29;;;;;;;94.63;27.60;;;;;;;;;;5094360;27;20048;-79
2022/12/10 02:31:56;;;;;;;103.72;27.60;;;;;;;;;;5094425;28;20123;-78
2022/12/10 02:34:24;;;;;;;81.43;25.00;;;;;;;;;;5115736;27;20135;-78
2022/12/10 02:36:51;;;;;;;100.35;26.75;;;;;;;;;;5092811;27;20059;-78
2022/12/10 02:39:20;;;;;;;91.60;24.90;;;;;;;;;;5091776;28;20402;-78
2022/12/10 02:41:49;;;;;;;98.55;27.83;;;;;;;;;;5092655;28;20063;-78
2022/12/10 02:44:17;;;;;;;105.82;27.55;;;;;;;;;;5105148;27;20070;-78
2022/12/10 02:46:44;;;;;;;95.80;27.10;;;;;;;;;;5105758;27;20058;-78
2022/12/10 02:49:12;;;;;;;117.15;27.40;;;;;;;;;;5096461;28;20150;-78
2022/12/10 02:51:38;;;;;;;100.85;25.77;;;;;;;;;;5111870;28;20297;-78
2022/12/10 02:54:05;;;;;;;105.40;27.75;;;;;;;;;;5116462;27;20059;-78
2022/12/10 02:56:44;;;;;;;100.63;25.83;;;;;;;;;;5102009;28;20056;-78
2022/12/10 02:59:19;;;;;;;100.28;26.27;;;;;;;;;;5110928;28;20052;-78
2022/12/10 03:01:56;;;;;;;105.57;27.67;;;;;;;;;;5111428;28;20056;-79
2022/12/10 03:04:31;;;;;;;93.72;26.38;;;;;;;;;;5105314;27;20095;-78
2022/12/10 03:07:08;;;;;;;90.88;25.52;;;;;;;;;;5096121;28;20064;-79
2022/12/10 03:09:40;;;;;;;91.38;24.90;;;;;;;;;;5092008;28;20053;-78
2022/12/10 03:12:19;;;;;;;97.63;26.38;;;;;;;;;;5091208;28;20491;-79
2022/12/10 03:14:45;;;;;;;99.95;25.42;;;;;;;;;;5092786;27;20066;-79
2022/12/10 03:17:13;;;;;;;117.63;25.77;;;;;;;;;;5104339;27;20064;-78
2022/12/10 03:19:41;;;;;;;97.72;26.63;;;;;;;;;;5108345;28;20090;-78
2022/12/10 03:22:09;;;;;;;97.22;25.23;;;;;;;;;;5110538;28;20046;-78
2022/12/10 03:24:36;;;;;;;127.82;24.38;;;;;;;;;;5109235;27;20051;-78
2022/12/10 03:27:04;;;;;;;129.82;25.67;;;;;;;;;;5111439;27;20052;-79
2022/12/10 03:29:33;;;;;;;116.90;26.17;;;;;;;;;;5098939;28;20056;-79
2022/12/10 03:32:00;;;;;;;163.60;25.70;;;;;;;;;;5097816;28;20084;-79
2022/12/10 03:34:27;;;;;;;123.05;24.30;;;;;;;;;;5107422;27;20067;-79
2022/12/10 03:36:54;;;;;;;124.03;24.77;;;;;;;;;;5121228;27;20056;-79
2022/12/10 03:39:20;;;;;;;105.90;24.17;;;;;;;;;;5100910;28;20071;-79
2022/12/10 03:41:47;;;;;;;135.85;26.02;;;;;;;;;;5109556;28;20063;-78
2022/12/10 03:44:13;;;;;;;100.63;24.77;;;;;;;;;;5114808;27;21057;-78
2022/12/10 03:46:39;;;;;;;94.78;23.40;;;;;;;;;;5113438;27;20044;-78
2022/12/10 03:49:06;;;;;;;163.00;27.10;;;;;;;;;;5090511;28;20106;-78
2022/12/10 03:51:32;;;;;;;115.70;25.20;;;;;;;;;;5094772;28;20028;-78
2022/12/10 03:53:59;;;;;;;110.13;25.02;;;;;;;;;;5095757;27;20744;-78
2022/12/10 03:56:25;;;;;;;105.93;23.38;;;;;;;;;;5119736;27;20056;-78
2022/12/10 03:58:51;;;;;;;112.93;25.00;;;;;;;;;;5091422;28;20525;-78
2022/12/10 04:01:18;;;;;;;86.85;23.08;;;;;;;;;;5106486;28;20059;-78
2022/12/10 04:03:44;;;;;;;117.75;24.10;;;;;;;;;;5112945;27;20159;-79
2022/12/10 04:06:14;;;;;;;110.03;24.77;;;;;;;;;;5133566;27;20047;-79
2022/12/10 04:08:41;;;;;;;128.68;24.77;;;;;;;;;;5076389;28;20070;-78
2022/12/10 04:11:08;;;;;;;103.53;23.80;;;;;;;;;;5095913;28;20056;-78
2022/12/10 04:16:28;;;;;;;111.10;25.80;;;;;;;;;;5106119;27;20059;-79
2022/12/10 04:18:57;;;;;;;122.35;24.70;;;;;;;;;;5094482;28;20040;-79
2022/12/10 04:26:59;;;;;;;88.05;21.80;;;;;;;;;;5126137;27;20048;-79
2022/12/10 04:29:27;;;;;;;101.32;22.95;;;;;;;;;;5091841;28;20048;-79
2022/12/10 04:31:53;;;;;;;118.72;22.83;;;;;;;;;;5097982;28;20084;-78
2022/12/10 04:34:20;;;;;;;92.32;22.77;;;;;;;;;;5095249;27;20048;-78
2022/12/10 04:36:47;;;;;;;104.45;22.88;;;;;;;;;;5112026;27;20078;-79
2022/12/10 04:39:13;;;;;;;104.95;24.40;;;;;;;;;;5072075;28;20565;-79
2022/12/10 04:41:41;;;;;;;112.55;24.33;;;;;;;;;;5072089;28;20439;-78
2022/12/10 04:44:08;;;;;;;112.47;23.73;;;;;;;;;;5098649;27;20066;-78
2022/12/10 04:46:34;;;;;;;113.40;22.73;;;;;;;;;;5092794;27;20127;-78
2022/12/10 04:49:01;;;;;;;109.60;23.60;;;;;;;;;;5102494;28;20073;-79
2022/12/10 04:51:27;;;;;;;147.85;23.80;;;;;;;;;;5110493;28;20147;-79
2022/12/10 04:53:54;;;;;;;141.95;23.85;;;;;;;;;;5103817;27;20048;-79
2022/12/10 04:56:20;;;;;;;112.30;24.05;;;;;;;;;;5111977;27;20075;-79
2022/12/10 04:58:47;;;;;;;123.50;23.75;;;;;;;;;;5089778;27;20049;-79
2022/12/10 05:01:13;;;;;;;89.05;22.25;;;;;;;;;;5089738;28;20085;-79
2022/12/10 05:03:40;;;;;;;117.32;23.80;;;;;;;;;;5089477;28;20537;-79
2022/12/10 05:06:08;;;;;;;82.50;23.05;;;;;;;;;;5095939;27;20052;-79
2022/12/10 05:08:35;;;;;;;107.28;23.95;;;;;;;;;;5109838;27;20058;-79
2022/12/10 05:11:02;;;;;;;139.95;24.27;;;;;;;;;;5089431;28;20060;-79
2022/12/10 05:13:29;;;;;;;160.85;26.55;;;;;;;;;;5084416;28;20051;-79
2022/12/10 05:15:55;;;;;;;168.40;25.85;;;;;;;;;;5096173;27;20144;-79
2022/12/10 05:18:23;;;;;;;106.55;24.33;;;;;;;;;;5088837;28;20063;-79
2022/12/10 05:20:49;;;;;;;134.23;25.00;;;;;;;;;;5088885;28;20056;-79
2022/12/10 05:23:28;;;;;;;131.25;25.23;;;;;;;;;;5102675;28;20056;-79
2022/12/10 05:26:03;;;;;;;96.35;22.58;;;;;;;;;;5107128;27;20053;-78
2022/12/10 05:28:31;;;;;;;107.07;24.00;;;;;;;;;;5090342;27;20031;-79
2022/12/10 05:30:58;;;;;;;103.47;21.10;;;;;;;;;;5108337;27;20131;-79
2022/12/10 05:33:24;;;;;;;119.13;22.75;;;;;;;;;;5088672;28;20053;-79
2022/12/10 05:35:51;;;;;;;100.85;21.65;;;;;;;;;;5116812;27;20052;-79
2022/12/10 05:38:19;;;;;;;88.18;22.20;;;;;;;;;;5089663;27;20095;-79
2022/12/10 05:40:45;;;;;;;96.15;22.50;;;;;;;;;;5089267;28;20057;-78
2022/12/10 05:43:19;;;;;;;98.20;21.70;;;;;;;;;;5088983;28;20056;-79
2022/12/10 05:45:45;;;;;;;87.93;20.98;;;;;;;;;;5089055;28;20513;-79
2022/12/10 05:48:13;;;;;;;89.10;20.70;;;;;;;;;;5111210;27;20454;-79
2022/12/10 05:50:40;;;;;;;128.07;22.25;;;;;;;;;;5134073;27;20079;-79
2022/12/10 05:53:06;;;;;;;113.05;22.33;;;;;;;;;;5123427;27;20064;-79
2022/12/10 05:55:32;;;;;;;141.80;23.50;;;;;;;;;;5092738;28;20048;-79
2022/12/10 05:57:59;;;;;;;110.28;22.02;;;;;;;;;;5110886;27;20486;-79
2022/12/10 06:00:26;;;;;;;118.22;24.65;;;;;;;;;;5092896;28;20150;-78
2022/12/10 06:02:53;;;;;;;106.25;23.10;;;;;;;;;;5092501;28;20079;-79
2022/12/10 06:05:20;;;;;;;84.70;23.98;;;;;;;;;;5073916;28;20053;-79
2022/12/10 06:07:46;;;;;;;104.15;22.38;;;;;;;;;;5101781;27;20059;-79
2022/12/10 06:10:13;;;;;;;85.72;24.17;;;;;;;;;;5097292;28;20052;-79
2022/12/10 06:12:39;;;;;;;100.32;24.27;;;;;;;;;;5131075;27;20054;-79
2022/12/10 06:15:06;;;;;;;102.22;24.75;;;;;;;;;;5102212;28;20048;-79
2022/12/10 06:17:32;;;;;;;100.15;23.60;;;;;;;;;;5110541;27;20837;-79
2022/12/10 06:19:58;;;;;;;87.80;21.40;;;;;;;;;;5075502;28;20045;-78
2022/12/10 06:22:25;;;;;;;113.78;24.02;;;;;;;;;;5091429;28;20774;-79
2022/12/10 06:24:51;;;;;;;136.30;29.17;;;;;;;;;;5091336;28;20049;-78
2022/12/10 06:27:17;;;;;;;115.35;23.50;;;;;;;;;;5109790;27;20066;-79
2022/12/10 06:29:44;;;;;;;108.35;25.00;;;;;;;;;;5116498;27;20052;-79
2022/12/10 06:32:10;;;;;;;119.78;23.58;;;;;;;;;;5093115;28;20048;-79
2022/12/10 06:34:37;;;;;;;131.05;26.33;;;;;;;;;;5091748;28;20134;-79
2022/12/10 06:37:08;;;;;;;139.50;26.15;;;;;;;;;;5098798;27;20076;-79
2022/12/10 06:39:34;;;;;;;102.22;24.40;;;;;;;;;;5131577;27;20507;-79
2022/12/10 06:42:01;;;;;;;116.13;24.40;;;;;;;;;;5107243;27;20056;-79
2022/12/10 06:44:27;;;;;;;125.30;26.75;;;;;;;;;;5110437;27;20047;-79
2022/12/10 06:46:53;;;;;;;92.00;23.88;;;;;;;;;;5128239;27;20062;-79
2022/12/10 06:49:20;;;;;;;93.25;25.00;;;;;;;;;;5091546;28;20052;-79
2022/12/10 06:51:47;;;;;;;76.03;20.67;;;;;;;;;;5092152;28;20131;-79
2022/12/10 06:54:13;;;;;;;100.97;20.67;;;;;;;;;;5106490;27;20056;-79
2022/12/10 06:56:40;;;;;;;79.15;21.02;;;;;;;;;;5107036;27;20060;-79
2022/12/10 06:59:06;;;;;;;103.35;22.60;;;;;;;;;;5089760;28;20055;-79
2022/12/10 07:01:32;;;;;;;89.45;22.60;;;;;;;;;;5091996;28;20059;-79
2022/12/10 07:03:59;;;;;;;100.72;23.98;;;;;;;;;;5096544;27;20130;-79
2022/12/10 07:06:27;;;;;;;93.50;23.48;;;;;;;;;;5093289;27;20052;-79
2022/12/10 07:08:54;;;;;;;91.25;22.67;;;;;;;;;;5114460;27;20056;-79
2022/12/10 07:11:21;;;;;;;105.72;25.40;;;;;;;;;;5131817;27;20131;-78
2022/12/10 07:13:48;;;;;;;97.78;22.58;;;;;;;;;;5114209;27;20155;-79
2022/12/10 07:16:15;;;;;;;107.63;23.75;;;;;;;;;;5116489;27;20059;-79
2022/12/10 07:18:42;;;;;;;102.88;23.92;;;;;;;;;;5127815;27;20051;-79
2022/12/10 07:21:18;;;;;;;112.68;24.88;;;;;;;;;;5096091;28;20490;-79
2022/12/10 07:23:45;;;;;;;82.13;20.75;;;;;;;;;;5095028;28;20044;-79
2022/12/10 07:26:11;;;;;;;86.97;22.65;;;;;;;;;;5099785;27;20421;-79
2022/12/10 07:28:37;;;;;;;103.72;23.95;;;;;;;;;;5091921;28;20056;-79
2022/12/10 07:31:17;;;;;;;91.68;20.70;;;;;;;;;;5089013;28;20510;-79
2022/12/10 07:33:44;;;;;;;114.65;22.17;;;;;;;;;;5090965;28;20052;-79
2022/12/10 07:36:11;;;;;;;79.22;20.75;;;;;;;;;;5098013;27;20059;-79
2022/12/10 07:38:38;;;;;;;76.35;21.15;;;;;;;;;;5110918;27;20063;-79
2022/12/10 07:41:04;;;;;;;82.95;21.90;;;;;;;;;;5106085;27;20352;-79
2022/12/10 07:43:34;;;;;;;69.47;19.92;;;;;;;;;;5114719;27;20089;-79
2022/12/10 07:46:08;;;;;;;75.22;18.75;;;;;;;;;;5110062;27;20142;-79
2022/12/10 07:48:36;;;;;;;78.65;18.98;;;;;;;;;;5109180;28;20048;-79
2022/12/10 07:51:02;;;;;;;85.15;22.00;;;;;;;;;;5100647;27;20059;-79
2022/12/10 07:53:29;;;;;;;71.78;20.08;;;;;;;;;;5089198;28;20053;-79
2022/12/10 07:55:56;;;;;;;72.47;19.77;;;;;;;;;;5090665;28;20060;-79
2022/12/10 07:58:22;;;;;;;75.00;18.70;;;;;;;;;;5089114;28;20079;-79
2022/12/10 08:00:49;;;;;;;81.03;19.88;;;;;;;;;;5126094;27;20955;-79
2022/12/10 08:03:15;;;;;;;72.65;19.00;;;;;;;;;;5130521;27;20090;-79
2022/12/10 08:05:41;;;;;;;80.78;19.75;;;;;;;;;;5106136;27;20052;-79
2022/12/10 08:08:08;;;;;;;81.05;19.35;;;;;;;;;;5089832;28;20068;-79
2022/12/10 08:10:35;;;;;;;87.90;20.63;;;;;;;;;;5099044;27;20072;-79
2022/12/10 08:13:01;;;;;;;73.47;19.30;;;;;;;;;;5095376;27;20984;-79
2022/12/10 08:15:30;;;;;;;69.32;21.13;;;;;;;;;;5089374;28;20064;-79
2022/12/10 08:17:57;;;;;;;101.10;22.55;;;;;;;;;;5090678;28;20029;-78
2022/12/10 08:20:24;;;;;;;80.88;20.25;;;;;;;;;;5117381;27;20059;-79
2022/12/10 08:22:50;;;;;;;81.55;21.52;;;;;;;;;;5111250;27;20532;-79
2022/12/10 08:25:17;;;;;;;94.35;22.50;;;;;;;;;;5089929;27;20561;-78
2022/12/10 08:27:43;;;;;;;83.03;21.35;;;;;;;;;;5101660;27;20064;-79
2022/12/10 08:30:10;;;;;;;97.10;19.05;;;;;;;;;;5094677;28;20056;-79
2022/12/10 08:32:36;;;;;;;87.95;17.98;;;;;;;;;;5096357;27;20056;-79
2022/12/10 08:35:03;;;;;;;69.63;17.40;;;;;;;;;;5108195;27;20083;-79
2022/12/10 08:37:29;;;;;;;72.93;18.45;;;;;;;;;;5095845;28;20066;-79
2022/12/10 08:39:56;;;;;;;79.10;18.75;;;;;;;;;;5103096;27;20434;-79
2022/12/10 08:42:22;;;;;;;83.40;17.67;;;;;;;;;;5095674;28;20106;-79
2022/12/10 08:44:48;;;;;;;55.92;17.00;;;;;;;;;;5109264;28;20056;-78
2022/12/10 08:47:14;;;;;;;64.78;17.58;;;;;;;;;;5095414;28;20052;-79
2022/12/10 08:49:41;;;;;;;75.93;18.73;;;;;;;;;;5089261;28;20099;-79
2022/12/10 08:52:07;;;;;;;72.93;19.90;;;;;;;;;;5097873;27;20054;-79
2022/12/10 08:54:34;;;;;;;84.43;20.70;;;;;;;;;;5129236;27;20052;-79
2022/12/10 08:57:01;;;;;;;79.80;21.30;;;;;;;;;;5113076;27;20052;-79
2022/12/10 08:59:27;;;;;;;84.82;20.73;;;;;;;;;;5084840;28;20056;-79
2022/12/10 09:01:54;;;;;;;79.28;19.98;;;;;;;;;;5102644;27;20048;-79
2022/12/10 09:04:22;;;;;;;89.45;19.58;;;;;;;;;;5103096;27;20052;-79
2022/12/10 09:06:48;;;;;;;69.70;20.02;;;;;;;;;;5097569;28;20063;-79
2022/12/10 09:09:14;;;;;;;82.10;19.50;;;;;;;;;;5088150;27;20135;-79
2022/12/10 09:11:41;;;;;;;87.00;19.13;;;;;;;;;;5103679;27;20129;-79
2022/12/10 09:14:07;;;;;;;89.22;20.83;;;;;;;;;;5108638;27;20064;-79
2022/12/10 09:16:35;;;;;;;75.35;19.15;;;;;;;;;;5088281;27;20052;-79
2022/12/10 09:19:02;;;;;;;77.55;19.05;;;;;;;;;;5099357;27;20076;-79
2022/12/10 09:21:30;;;;;;;70.05;17.27;;;;;;;;;;5089832;27;20052;-79
2022/12/10 09:23:57;;;;;;;60.28;17.65;;;;;;;;;;5101707;27;20576;-79
2022/12/10 09:26:24;;;;;;;68.45;18.48;;;;;;;;;;5109583;28;20058;-79
2022/12/10 09:28:50;;;;;;;71.55;18.95;;;;;;;;;;5082900;28;20083;-79
2022/12/10 09:31:18;;;;;;;79.03;19.50;;;;;;;;;;5095461;28;20135;-79
2022/12/10 09:33:47;;;;;;;102.35;21.48;;;;;;;;;;5114390;27;20047;-79
2022/12/10 09:36:14;;;;;;;89.15;19.73;;;;;;;;;;5099577;28;20133;-79
2022/12/10 09:38:42;;;;;;;88.70;19.98;;;;;;;;;;5095956;28;20060;-79
2022/12/10 09:41:11;;;;;;;93.57;19.17;;;;;;;;;;5096117;28;20126;-79
2022/12/10 09:43:43;;;;;;;93.70;19.23;;;;;;;;;;5101839;27;20524;-79
2022/12/10 09:46:18;;;;;;;96.85;17.48;;;;;;;;;;5108288;27;20106;-79
2022/12/10 09:48:48;;;;;;;79.13;18.83;;;;;;;;;;5105181;27;20139;-79
2022/12/10 09:51:20;;;;;;;70.78;18.52;;;;;;;;;;5097755;27;20807;-78
2022/12/10 09:53:48;;;;;;;96.78;18.48;;;;;;;;;;5097911;28;20135;-78
2022/12/10 09:56:20;;;;;;;84.80;20.80;;;;;;;;;;5073803;28;20052;-78
2022/12/10 09:58:46;;;;;;;95.13;19.88;;;;;;;;;;5091780;28;20060;-78
2022/12/10 10:01:14;;;;;;;72.55;18.35;;;;;;;;;;5092663;27;20055;-78
2022/12/10 10:03:41;;;;;;;75.90;19.15;;;;;;;;;;5091046;28;20048;-78
2022/12/10 10:06:10;;;;;;;79.68;18.23;;;;;;;;;;5097852;28;20044;-79
2022/12/10 10:08:45;;;;;;;65.22;17.50;;;;;;;;;;5108340;28;20055;-78
2022/12/10 10:11:14;;;;;;;63.25;16.30;;;;;;;;;;5106031;28;20052;-78
2022/12/10 10:13:44;;;;;;;100.32;18.52;;;;;;;;;;5093520;28;20136;-78
2022/12/10 10:16:20;;;;;;;56.88;16.52;;;;;;;;;;5109768;27;20514;-79
2022/12/10 10:18:50;;;;;;;63.10;18.38;;;;;;;;;;5112333;28;20045;-78
2022/12/10 10:21:23;;;;;;;77.90;17.92;;;;;;;;;;5084907;27;20048;-79
2022/12/10 10:23:50;;;;;;;54.03;14.25;;;;;;;;;;5091152;28;20063;-78
2022/12/10 10:26:17;;;;;;;58.95;14.65;;;;;;;;;;5101729;28;20064;-79
2022/12/10 10:28:43;;;;;;;70.53;17.50;;;;;;;;;;5104406;27;20051;-79
2022/12/10 10:31:17;;;;;;;64.53;17.67;;;;;;;;;;5130349;27;20056;-79
2022/12/10 10:33:56;;;;;;;57.05;16.17;;;;;;;;;;5091485;28;20056;-79
2022/12/10 10:36:27;;;;;;;60.47;15.77;;;;;;;;;;5088634;28;20052;-79
2022/12/10 10:38:53;;;;;;;60.42;17.17;;;;;;;;;;5099892;28;20620;-79
2022/12/10 10:41:19;;;;;;;61.75;16.98;;;;;;;;;;5089255;28;20052;-79
2022/12/10 10:43:47;;;;;;;109.43;17.23;;;;;;;;;;5091374;28;20079;-80
2022/12/10 10:46:15;;;;;;;78.95;18.75;;;;;;;;;;5101129;28;20131;-80
2022/12/10 10:48:41;;;;;;;61.75;16.83;;;;;;;;;;5095281;28;20056;-79
2022/12/10 10:51:11;;;;;;;68.80;16.85;;;;;;;;;;5110071;28;20059;-79
2022/12/10 10:53:38;;;;;;;60.40;16.85;;;;;;;;;;5110395;28;20082;-79
2022/12/10 10:56:16;;;;;;;51.42;15.50;;;;;;;;;;5111304;28;20059;-81
2022/12/10 10:58:47;;;;;;;47.50;14.38;;;;;;;;;;5084711;28;20059;-79
2022/12/10 11:01:14;;;;;;;64.50;19.25;;;;;;;;;;5091318;28;20056;-80
2022/12/10 11:03:46;;;;;;;66.82;16.52;;;;;;;;;;5106055;28;20109;-80
2022/12/10 11:06:12;;;;;;;55.65;16.40;;;;;;;;;;5117101;27;20059;-79
2022/12/10 11:08:39;;;;;;;84.97;19.85;;;;;;;;;;5116417;27;20823;-81
2022/12/10 11:11:11;;;;;;;71.40;16.08;;;;;;;;;;5084801;28;20052;-81
2022/12/10 11:13:38;;;;;;;57.42;15.55;;;;;;;;;;5090255;28;20045;-80
2022/12/10 11:16:12;;;;;;;67.70;16.65;;;;;;;;;;5089547;28;20535;-79
2022/12/10 11:18:50;;;;;;;52.83;14.95;;;;;;;;;;5089052;28;20056;-77
2022/12/10 11:21:21;;;;;;;93.53;14.98;;;;;;;;;;5090325;28;20065;-77
2022/12/10 11:23:52;;;;;;;51.15;14.35;;;;;;;;;;5093983;27;20053;-77
2022/12/10 11:26:30;;;;;;;74.57;14.52;;;;;;;;;;5086505;27;20059;-77
2022/12/10 11:29:06;;;;;;;63.30;15.80;;;;;;;;;;5096127;27;20056;-77
2022/12/10 11:31:51;;;;;;;59.63;14.65;;;;;;;;;;5090929;28;20052;-79
2022/12/10 11:34:17;;;;;;;52.38;15.52;;;;;;;;;;5098372;27;20055;-78
2022/12/10 11:36:44;;;;;;;63.75;16.48;;;;;;;;;;5093242;28;20527;-78
2022/12/10 11:39:33;;;;;;;56.53;15.93;;;;;;;;;;5105859;27;20058;-78
2022/12/10 11:42:15;;;;;;;57.25;17.08;;;;;;;;;;5077703;28;20513;-77
2022/12/10 11:44:50;;;;;;;64.28;16.10;;;;;;;;;;5079334;28;20052;-77
2022/12/10 11:47:16;;;;;;;58.38;16.73;;;;;;;;;;5088694;28;20051;-78
2022/12/10 11:49:54;;;;;;;62.63;19.83;;;;;;;;;;5098205;28;20056;-78
2022/12/10 11:52:29;;;;;;;56.50;19.70;;;;;;;;;;5097645;28;20423;-78
2022/12/10 11:55:16;;;;;;;47.85;16.25;;;;;;;;;;5092132;27;20142;-77
2022/12/10 11:58:06;;;;;;;62.22;15.43;;;;;;;;;;5102814;28;20071;-78
2022/12/10 12:00:41;;;;;;;57.60;14.90;;;;;;;;;;5084703;28;20530;-78
2022/12/10 12:03:24;;;;;;;75.43;16.75;;;;;;;;;;5099621;27;20060;-78
2022/12/10 12:06:03;;;;;;;56.53;14.55;;;;;;;;;;5070364;28;20110;-78
2022/12/10 12:08:33;;;;;;;65.10;15.68;;;;;;;;;;5091952;28;20683;-78
2022/12/10 12:11:00;;;;;;;46.95;13.32;;;;;;;;;;5078355;28;20083;-78
2022/12/10 12:13:33;;;;;;;54.70;14.50;;;;;;;;;;5091708;28;20108;-78
2022/12/10 12:16:15;;;;;;;59.00;16.70;;;;;;;;;;5106909;27;20084;-78
2022/12/10 12:18:56;;;;;;;57.58;15.48;;;;;;;;;;5092869;27;20052;-78
2022/12/10 12:21:22;;;;;;;53.80;14.55;;;;;;;;;;5101255;27;20493;-78
2022/12/10 12:23:52;;;;;;;66.97;14.93;;;;;;;;;;5091103;27;20052;-78
2022/12/10 12:26:26;;;;;;;60.42;15.27;;;;;;;;;;5084366;28;20514;-78
2022/12/10 12:28:55;;;;;;;55.25;15.98;;;;;;;;;;5076944;28;20058;-78
2022/12/10 12:31:24;;;;;;;63.70;15.70;;;;;;;;;;5091067;28;20120;-78
2022/12/10 12:33:58;;;;;;;56.78;14.98;;;;;;;;;;5089023;28;20069;-78
2022/12/10 12:36:29;;;;;;;51.60;15.10;;;;;;;;;;5103120;27;20582;-78
2022/12/10 12:38:56;;;;;;;61.17;14.82;;;;;;;;;;5091363;28;20067;-78
2022/12/10 12:41:34;;;;;;;55.65;15.30;;;;;;;;;;5107347;28;20510;-78
2022/12/10 12:44:04;;;;;;;53.20;15.90;;;;;;;;;;5103911;28;20052;-78
2022/12/10 12:46:35;;;;;;;51.22;15.73;;;;;;;;;;5096457;27;20143;-78
2022/12/10 12:49:01;;;;;;;;;;;;;;;;;;5101226;28;20048;-78
2022/12/10 12:51:38;;;;;;;46.72;14.25;;;;;;;;;;5087725;28;43344;-78
2022/12/10 12:54:05;;;;;;;51.88;16.08;;;;;;;;;;5091327;27;20055;-79
2022/12/10 12:56:41;;;;;;;51.90;15.30;;;;;;;;;;5088563;28;20512;-78
2022/12/10 12:59:17;;;;;;;58.17;15.40;;;;;;;;;;5089597;27;20143;-78
2022/12/10 13:01:49;;;;;;;49.97;14.25;;;;;;;;;;5091598;27;20058;-78
2022/12/10 13:04:16;;;;;;;51.70;15.32;;;;;;;;;;5083707;27;20059;-78
2022/12/10 13:07:02;;;;;;;54.22;14.48;;;;;;;;;;5116847;27;20055;-78
2022/12/10 13:09:29;;;;;;;51.75;14.30;;;;;;;;;;5108433;28;20052;-78
2022/12/10 13:12:02;;;;;;;57.90;15.55;;;;;;;;;;5093534;27;20048;-78
2022/12/10 13:14:30;;;;;;;54.17;13.73;;;;;;;;;;5108445;28;20221;-78
2022/12/10 13:17:15;;;;;;;49.50;14.02;;;;;;;;;;5103373;28;20067;-78
2022/12/10 13:19:42;;;;;;;51.65;14.63;;;;;;;;;;5097263;27;20051;-78
2022/12/10 13:22:10;;;;;;;52.40;13.98;;;;;;;;;;5092670;27;20498;-78
2022/12/10 13:24:36;;;;;;;50.38;14.60;;;;;;;;;;5106077;27;20528;-78
2022/12/10 13:27:08;;;;;;;58.67;15.07;;;;;;;;;;5094987;27;20542;-78
2022/12/10 13:29:48;;;;;;;58.38;16.55;;;;;;;;;;5108371;27;20105;-78
2022/12/10 13:32:41;;;;;;;105.70;20.88;;;;;;;;;;5099080;27;20133;-78
2022/12/10 13:35:08;;;;;;;62.00;16.02;;;;;;;;;;5086461;28;20189;-78
2022/12/10 13:37:47;;;;;;;49.78;16.08;;;;;;;;;;5099484;28;20060;-78
2022/12/10 13:40:21;;;;;;;64.30;14.80;;;;;;;;;;5103463;27;20456;-78
2022/12/10 13:45:40;;;;;;;63.28;15.10;;;;;;;;;;5106559;28;20082;-78
2022/12/10 13:48:21;;;;;;;56.33;15.05;;;;;;;;;;5107466;27;20434;-78
2022/12/10 13:50:50;;;;;;;53.60;15.98;;;;;;;;;;5099600;27;20044;-78
2022/12/10 13:53:16;;;;;;;56.50;14.82;;;;;;;;;;5102282;28;20063;-78
2022/12/10 13:55:52;;;;;;;65.40;15.35;;;;;;;;;;5083113;28;20887;-78
2022/12/10 13:58:24;;;;;;;66.30;16.48;;;;;;;;;;5100031;27;20523;-78
2022/12/10 14:01:02;;;;;;;58.88;14.80;;;;;;;;;;5103451;28;20066;-78
2022/12/10 14:03:44;;;;;;;46.92;14.82;;;;;;;;;;5102293;27;20083;-78
2022/12/10 14:06:10;;;;;;;63.92;16.08;;;;;;;;;;5090240;28;20055;-78
2022/12/10 14:08:38;;;;;;;59.13;14.40;;;;;;;;;;5092683;27;20071;-78
2022/12/10 14:11:05;;;;;;;70.30;16.02;;;;;;;;;;5096027;27;20522;-78
2022/12/10 14:13:40;;;;;;;55.75;14.90;;;;;;;;;;5107764;27;20484;-78
2022/12/10 14:16:10;;;;;;;62.13;15.40;;;;;;;;;;5102833;28;20060;-78
2022/12/10 14:18:38;;;;;;;66.00;16.60;;;;;;;;;;5088965;28;20140;-78
2022/12/10 14:21:05;;;;;;;77.85;17.30;;;;;;;;;;5095342;27;20051;-78
2022/12/10 14:23:34;;;;;;;57.97;16.23;;;;;;;;;;5109869;28;20059;-78
2022/12/10 14:26:04;;;;;;;67.53;18.40;;;;;;;;;;5106292;28;20095;-78
2022/12/10 14:28:33;;;;;;;77.37;16.80;;;;;;;;;;5090586;27;20057;-78
2022/12/10 14:30:59;;;;;;;90.00;24.70;;;;;;;;;;5093116;27;20048;-78
2022/12/10 14:33:26;;;;;;;77.57;17.48;;;;;;;;;;5092654;28;20938;-78
2022/12/10 14:35:52;;;;;;;77.05;18.42;;;;;;;;;;5103920;27;20136;-78